Time;durP1;ratioP1;P1;durP2;ratioP2;P2;SDS_P1;SDS_P2;PMS_P1;PMS_P2;Temp;Humidity;BMP_temperature;BMP_pressure;BME280_temperature;BME280_humidity;BME280_pressure;Samples;Min_cycle;Max_cycle;Signal;HPM_P1;HPM_P2
2022/12/01 00:01:21;;;;;;;7.87;5.83;;;;;;;-141.59;100.00;61776.25;5044022;28;20291;-83
2022/12/01 00:03:49;;;;;;;8.80;6.23;;;;;;;-141.59;100.00;61776.25;5048964;28;20247;-83
2022/12/01 00:06:17;;;;;;;9.53;5.70;;;;;;;-141.59;100.00;61776.25;5049038;28;20209;-83
2022/12/01 00:11:30;;;;;;;9.53;6.40;;;;;;;-141.59;100.00;61776.25;5046574;28;20221;-83
2022/12/01 00:13:58;;;;;;;8.23;6.07;;;;;;;-141.59;100.00;61776.25;5049555;28;20206;-83
2022/12/01 00:16:25;;;;;;;9.47;6.30;;;;;;;-141.59;100.00;61776.25;5063756;28;20284;-82
2022/12/01 00:18:53;;;;;;;10.53;6.20;;;;;;;-141.59;100.00;61776.25;5049127;28;20217;-83
2022/12/01 00:21:23;;;;;;;9.80;6.20;;;;;;;-141.59;100.00;61776.25;5051051;28;20201;-83
2022/12/01 00:23:53;;;;;;;13.87;6.70;;;;;;;-141.59;100.00;61776.25;5042474;28;20202;-83
2022/12/01 00:26:22;;;;;;;9.33;6.50;;;;;;;-141.59;100.00;61776.25;5063766;28;20209;-83
2022/12/01 00:28:50;;;;;;;10.73;7.03;;;;;;;-141.59;100.00;61776.25;5068143;28;20201;-83
2022/12/01 00:31:17;;;;;;;10.03;6.43;;;;;;;-141.59;100.00;61776.25;5048864;28;20236;-83
2022/12/01 00:33:44;;;;;;;10.03;6.30;;;;;;;-141.59;100.00;61776.25;5050372;28;20208;-83
2022/12/01 00:36:11;;;;;;;11.83;6.87;;;;;;;-141.59;100.00;61776.25;5050492;28;20209;-83
2022/12/01 00:38:39;;;;;;;9.43;6.37;;;;;;;-141.59;100.00;61776.25;5069026;28;20223;-82
2022/12/01 00:41:08;;;;;;;8.20;5.93;;;;;;;-141.59;100.00;61776.25;5052756;28;20240;-83
2022/12/01 00:43:35;;;;;;;8.80;6.27;;;;;;;-141.59;100.00;61776.25;5051393;28;20237;-83
2022/12/01 00:46:03;;;;;;;11.10;6.87;;;;;;;-141.59;100.00;61776.25;5054725;28;20206;-83
2022/12/01 00:48:30;;;;;;;12.07;8.07;;;;;;;-141.59;100.00;61776.25;5035186;28;20205;-82
2022/12/01 00:50:57;;;;;;;10.17;6.83;;;;;;;-141.59;100.00;61776.25;5047043;28;20272;-84
2022/12/01 00:53:24;;;;;;;11.10;7.03;;;;;;;-141.59;100.00;61776.25;5041387;28;20206;-83
2022/12/01 00:55:52;;;;;;;13.20;6.63;;;;;;;-141.59;100.00;61776.25;5064639;28;20257;-83
2022/12/01 00:58:21;;;;;;;12.13;6.83;;;;;;;-141.59;100.00;61776.25;5034650;28;20265;-83
2022/12/01 01:00:48;;;;;;;10.53;6.73;;;;;;;-141.59;100.00;61776.25;5052879;28;20206;-82
2022/12/01 01:03:16;;;;;;;10.83;6.77;;;;;;;-141.59;100.00;61776.25;5052273;28;20288;-83
2022/12/01 01:05:43;;;;;;;15.20;6.50;;;;;;;-141.59;100.00;61776.25;5052911;28;20201;-83
2022/12/01 01:08:13;;;;;;;13.07;8.27;;;;;;;-141.59;100.00;61776.25;5066659;28;20201;-82
2022/12/01 01:10:42;;;;;;;10.70;7.23;;;;;;;-141.59;100.00;61776.25;5047050;28;20230;-82
2022/12/01 01:13:10;;;;;;;11.07;7.03;;;;;;;-141.59;100.00;61776.25;5046086;28;20342;-83
2022/12/01 01:15:39;;;;;;;15.90;7.90;;;;;;;-141.59;100.00;61776.25;5042591;28;20222;-83
2022/12/01 01:18:08;;;;;;;10.77;7.27;;;;;;;-141.59;100.00;61776.25;5043868;28;20305;-82
2022/12/01 01:20:35;;;;;;;10.67;6.97;;;;;;;-141.59;100.00;61776.25;5038549;28;20271;-83
2022/12/01 01:23:02;;;;;;;11.13;6.97;;;;;;;-141.59;100.00;61776.25;5059617;28;20198;-83
2022/12/01 01:25:31;;;;;;;12.13;6.87;;;;;;;-141.59;100.00;61776.25;5049195;28;20201;-83
2022/12/01 01:27:58;;;;;;;10.37;7.17;;;;;;;-141.59;100.00;61776.25;5036897;28;20278;-83
2022/12/01 01:30:25;;;;;;;11.83;7.23;;;;;;;-141.59;100.00;61776.25;5047794;28;20255;-83
2022/12/01 01:32:53;;;;;;;9.73;6.87;;;;;;;-141.59;100.00;61776.25;5043954;28;20201;-83
2022/12/01 01:35:21;;;;;;;11.07;6.83;;;;;;;-141.59;100.00;61776.25;5045853;28;20213;-83
2022/12/01 01:37:49;;;;;;;12.43;7.27;;;;;;;-141.59;100.00;61776.25;5069059;28;20210;-83
2022/12/01 01:40:17;;;;;;;10.83;7.17;;;;;;;-141.59;100.00;61776.25;5042079;28;20238;-83
2022/12/01 01:42:44;;;;;;;9.70;6.60;;;;;;;-141.59;100.00;61776.25;5053790;28;20294;-83
2022/12/01 01:45:21;;;;;;;10.90;7.10;;;;;;;-141.59;100.00;61776.25;5047345;28;20305;-83
2022/12/01 01:47:52;;;;;;;10.27;6.70;;;;;;;-141.59;100.00;61776.25;5043665;28;20209;-83
2022/12/01 01:50:24;;;;;;;9.33;6.43;;;;;;;-141.59;100.00;61776.25;5035919;28;20209;-83
2022/12/01 01:52:57;;;;;;;12.00;7.73;;;;;;;-141.59;100.00;61776.25;5048921;28;20267;-83
2022/12/01 01:55:26;;;;;;;10.67;6.83;;;;;;;-141.59;100.00;61776.25;5052381;28;20239;-83
2022/12/01 01:57:53;;;;;;;11.37;7.13;;;;;;;-141.59;100.00;61776.25;5044586;28;20205;-83
2022/12/01 02:00:21;;;;;;;15.63;7.70;;;;;;;-141.59;100.00;61776.25;5046313;28;20254;-83
2022/12/01 02:02:50;;;;;;;10.80;6.90;;;;;;;-141.59;100.00;61776.25;5046170;28;20268;-83
2022/12/01 02:05:22;;;;;;;11.97;7.10;;;;;;;-141.59;100.00;61776.25;5068444;28;20208;-84
2022/12/01 02:07:51;;;;;;;13.10;7.37;;;;;;;-141.59;100.00;61776.25;5050984;28;20228;-83
2022/12/01 02:10:22;;;;;;;11.17;6.67;;;;;;;-141.59;100.00;61776.25;5049505;28;20318;-83
2022/12/01 02:13:11;;;;;;;11.63;7.10;;;;;;;-141.59;100.00;61776.25;5071068;28;20198;-83
2022/12/01 02:15:44;;;;;;;12.87;7.13;;;;;;;-141.59;100.00;61776.25;5044654;28;20214;-83
2022/12/01 02:18:24;;;;;;;11.37;7.77;;;;;;;-141.59;100.00;61776.25;5058549;28;20309;-83
2022/12/01 02:21:08;;;;;;;10.97;7.20;;;;;;;-141.59;100.00;61776.25;5035812;28;20216;-83
2022/12/01 02:24:07;;;;;;;10.90;7.27;;;;;;;-141.59;100.00;61776.25;5044400;28;20232;-82
2022/12/01 02:26:44;;;;;;;12.73;7.53;;;;;;;-141.59;100.00;61776.25;5006052;28;20216;-83
2022/12/01 02:29:39;;;;;;;11.10;7.20;;;;;;;-141.59;100.00;61776.25;5066339;28;20281;-83
2022/12/01 02:32:15;;;;;;;11.87;7.50;;;;;;;-141.59;100.00;61776.25;5058911;28;20262;-83
2022/12/01 02:34:51;;;;;;;12.20;7.87;;;;;;;-141.59;100.00;61776.25;5038477;28;20233;-82
2022/12/01 02:37:25;;;;;;;11.70;7.40;;;;;;;-141.59;100.00;61776.25;5045586;28;20201;-83
2022/12/01 02:39:57;;;;;;;9.37;7.13;;;;;;;-141.59;100.00;61776.25;5042160;28;20229;-83
2022/12/01 02:42:53;;;;;;;9.20;6.50;;;;;;;-141.59;100.00;61776.25;5048287;28;20209;-83
2022/12/01 02:45:36;;;;;;;10.37;7.27;;;;;;;-141.59;100.00;61776.25;5046617;28;20228;-83
2022/12/01 02:48:11;;;;;;;11.97;7.50;;;;;;;-141.59;100.00;61776.25;5052676;28;20213;-83
2022/12/01 02:50:40;;;;;;;11.17;7.30;;;;;;;-141.59;100.00;61776.25;5051525;28;20521;-83
2022/12/01 02:53:10;;;;;;;15.33;7.53;;;;;;;-141.59;100.00;61776.25;5044581;28;20197;-83
2022/12/01 02:55:45;;;;;;;11.20;7.63;;;;;;;-141.59;100.00;61776.25;5046178;28;20229;-82
2022/12/01 02:58:14;;;;;;;12.40;7.70;;;;;;;-141.59;100.00;61776.25;5042807;28;20251;-83
2022/12/01 03:00:49;;;;;;;12.10;8.07;;;;;;;-141.59;100.00;61776.25;5047242;28;20292;-82
2022/12/01 03:03:40;;;;;;;11.17;7.80;;;;;;;-141.59;100.00;61776.25;5051495;28;20209;-83
2022/12/01 03:06:15;;;;;;;10.03;6.70;;;;;;;-141.59;100.00;61776.25;5056825;28;20209;-83
2022/12/01 03:08:51;;;;;;;9.83;6.20;;;;;;;-141.59;100.00;61776.25;5039923;28;20213;-82
2022/12/01 03:11:27;;;;;;;11.17;7.00;;;;;;;-141.59;100.00;61776.25;5038193;28;20221;-83
2022/12/01 03:14:09;;;;;;;9.40;6.30;;;;;;;-141.59;100.00;61776.25;5044268;28;20198;-83
2022/12/01 03:16:47;;;;;;;13.30;6.60;;;;;;;-141.59;100.00;61776.25;5044886;28;20197;-83
2022/12/01 03:19:21;;;;;;;9.67;6.27;;;;;;;-141.59;100.00;61776.25;5043596;28;20220;-83
2022/12/01 03:21:56;;;;;;;12.73;6.83;;;;;;;-141.59;100.00;61776.25;5051446;28;20205;-83
2022/12/01 03:24:28;;;;;;;10.40;6.57;;;;;;;-141.59;100.00;61776.25;5064924;28;20208;-83
2022/12/01 03:26:58;;;;;;;10.63;7.17;;;;;;;-141.59;100.00;61776.25;5052643;28;20198;-83
2022/12/01 03:29:29;;;;;;;10.20;6.23;;;;;;;-141.59;100.00;61776.25;5049130;28;20260;-83
2022/12/01 03:32:02;;;;;;;10.23;7.03;;;;;;;-141.59;100.00;61776.25;5043745;28;20202;-82
2022/12/01 03:34:35;;;;;;;10.07;6.50;;;;;;;-141.59;100.00;61776.25;5048310;28;20194;-83
2022/12/01 03:37:08;;;;;;;10.57;6.27;;;;;;;-141.59;100.00;61776.25;5053635;28;20213;-83
2022/12/01 03:39:37;;;;;;;9.80;6.70;;;;;;;-141.59;100.00;61776.25;5040161;28;20237;-83
2022/12/01 03:42:11;;;;;;;9.70;6.43;;;;;;;-141.59;100.00;61776.25;5046948;28;20232;-83
2022/12/01 03:44:44;;;;;;;8.07;5.67;;;;;;;-141.59;100.00;61776.25;5065652;28;20198;-83
2022/12/01 03:47:18;;;;;;;9.43;6.33;;;;;;;-141.59;100.00;61776.25;5051068;28;20205;-82
2022/12/01 03:49:50;;;;;;;11.77;6.63;;;;;;;-141.59;100.00;61776.25;5040261;28;20280;-82
2022/12/01 03:52:29;;;;;;;10.97;6.03;;;;;;;-141.59;100.00;61776.25;5046351;28;20209;-83
2022/12/01 03:55:10;;;;;;;10.97;6.13;;;;;;;-141.59;100.00;61776.25;5040800;28;20226;-83
2022/12/01 03:57:44;;;;;;;8.53;5.70;;;;;;;-141.59;100.00;61776.25;5062882;28;20198;-83
2022/12/01 04:00:14;;;;;;;8.43;5.53;;;;;;;-141.59;100.00;61776.25;5049670;28;20267;-82
2022/12/01 04:02:41;;;;;;;8.83;5.40;;;;;;;-141.59;100.00;61776.25;5039916;28;20214;-83
2022/12/01 04:05:10;;;;;;;8.47;5.83;;;;;;;-141.59;100.00;61776.25;5046589;28;20202;-83
2022/12/01 04:07:38;;;;;;;8.93;5.73;;;;;;;-141.59;100.00;61776.25;5054094;28;20205;-83
2022/12/01 04:10:07;;;;;;;10.00;5.93;;;;;;;-141.59;100.00;61776.25;5051728;28;20225;-83
2022/12/01 04:12:33;;;;;;;10.07;6.20;;;;;;;-141.59;100.00;61776.25;5036309;28;20205;-82
2022/12/01 04:15:02;;;;;;;8.47;5.83;;;;;;;-141.59;100.00;61776.25;5053927;28;20244;-83
2022/12/01 04:17:29;;;;;;;7.83;5.20;;;;;;;-141.59;100.00;61776.25;5048385;28;20218;-83
2022/12/01 04:19:56;;;;;;;7.80;5.43;;;;;;;-141.59;100.00;61776.25;5047297;28;20245;-82
2022/12/01 04:22:25;;;;;;;9.17;5.70;;;;;;;-141.59;100.00;61776.25;5044499;28;20261;-83
2022/12/01 04:24:52;;;;;;;8.33;5.67;;;;;;;-141.59;100.00;61776.25;5064372;28;20292;-83
2022/12/01 04:27:20;;;;;;;8.33;5.20;;;;;;;-141.59;100.00;61776.25;5061517;28;20210;-82
2022/12/01 04:29:47;;;;;;;8.03;5.20;;;;;;;-141.59;100.00;61776.25;5048734;28;20201;-83
2022/12/01 04:32:16;;;;;;;9.43;6.40;;;;;;;-141.59;100.00;61776.25;5061018;28;20202;-81
2022/12/01 04:34:43;;;;;;;8.57;5.30;;;;;;;-141.59;100.00;61776.25;5037753;28;20224;-81
2022/12/01 04:37:12;;;;;;;8.17;5.27;;;;;;;-141.59;100.00;61776.25;5049672;28;20204;-82
2022/12/01 04:39:41;;;;;;;9.53;6.10;;;;;;;-141.59;100.00;61776.25;5064086;28;20213;-83
2022/12/01 04:42:09;;;;;;;8.30;5.27;;;;;;;-141.59;100.00;61776.25;5052062;28;20209;-83
2022/12/01 04:44:37;;;;;;;10.13;6.40;;;;;;;-141.59;100.00;61776.25;5070148;28;20204;-83
2022/12/01 04:47:05;;;;;;;10.17;5.90;;;;;;;-141.59;100.00;61776.25;5053507;28;20210;-83
2022/12/01 04:49:33;;;;;;;9.70;5.83;;;;;;;-141.59;100.00;61776.25;5073395;28;20219;-83
2022/12/01 04:52:00;;;;;;;10.50;6.63;;;;;;;-141.59;100.00;61776.25;5051019;28;20216;-83
2022/12/01 04:54:28;;;;;;;9.50;6.50;;;;;;;-141.59;100.00;61776.25;5046085;28;20207;-83
2022/12/01 04:56:57;;;;;;;10.03;6.10;;;;;;;-141.59;100.00;61776.25;5034147;28;20234;-83
2022/12/01 04:59:24;;;;;;;10.33;6.27;;;;;;;-141.59;100.00;61776.25;5046135;28;20218;-83
2022/12/01 05:01:52;;;;;;;10.23;6.20;;;;;;;-141.59;100.00;61776.25;5052505;28;20209;-83
2022/12/01 05:04:20;;;;;;;11.17;6.23;;;;;;;-141.59;100.00;61776.25;5054492;28;20198;-83
2022/12/01 05:06:48;;;;;;;9.13;5.77;;;;;;;-141.59;100.00;61776.25;5050006;28;20213;-83
2022/12/01 05:09:16;;;;;;;9.30;5.97;;;;;;;-141.59;100.00;61776.25;5042536;28;20205;-83
2022/12/01 05:11:44;;;;;;;10.93;6.70;;;;;;;-141.59;100.00;61776.25;5048073;28;20282;-83
2022/12/01 05:14:12;;;;;;;10.53;6.60;;;;;;;-141.59;100.00;61776.25;5044772;28;20213;-83
2022/12/01 05:16:39;;;;;;;8.30;5.77;;;;;;;-141.59;100.00;61776.25;5063984;28;20201;-82
2022/12/01 05:21:55;;;;;;;10.13;6.47;;;;;;;-141.59;100.00;61776.25;5043888;28;20229;-83
2022/12/01 05:24:22;;;;;;;9.13;5.97;;;;;;;-141.59;100.00;61776.25;5042961;28;20206;-83
2022/12/01 05:26:49;;;;;;;9.97;6.33;;;;;;;-141.59;100.00;61776.25;5045947;28;20224;-83
2022/12/01 05:29:18;;;;;;;9.77;6.63;;;;;;;-141.59;100.00;61776.25;5051239;28;20198;-82
2022/12/01 05:31:46;;;;;;;9.33;6.07;;;;;;;-141.59;100.00;61776.25;5067520;28;20201;-82
2022/12/01 05:34:14;;;;;;;10.07;5.83;;;;;;;-141.59;100.00;61776.25;5048033;28;20205;-83
2022/12/01 05:36:42;;;;;;;11.00;6.87;;;;;;;-141.59;100.00;61776.25;5043447;28;20212;-83
2022/12/01 05:39:09;;;;;;;13.20;7.90;;;;;;;-141.59;100.00;61776.25;5036567;28;20236;-82
2022/12/01 05:41:37;;;;;;;9.80;5.97;;;;;;;-141.59;100.00;61776.25;5047475;28;20206;-83
2022/12/01 05:44:04;;;;;;;9.23;6.33;;;;;;;-141.59;100.00;61776.25;5068745;28;20220;-83
2022/12/01 05:46:33;;;;;;;10.37;6.63;;;;;;;-141.59;100.00;61776.25;5045293;28;20204;-82
2022/12/01 05:49:00;;;;;;;10.37;6.83;;;;;;;-141.59;100.00;61776.25;5051980;28;20209;-82
2022/12/01 05:51:27;;;;;;;12.90;7.70;;;;;;;-141.59;100.00;61776.25;5046864;28;20237;-83
2022/12/01 05:53:54;;;;;;;11.53;7.13;;;;;;;-141.59;100.00;61776.25;5043740;28;20193;-82
2022/12/01 05:56:22;;;;;;;12.47;7.60;;;;;;;-141.59;100.00;61776.25;5041062;28;20241;-83
2022/12/01 05:58:49;;;;;;;19.10;7.80;;;;;;;-141.59;100.00;61776.25;5039208;28;20235;-82
2022/12/01 06:01:16;;;;;;;14.17;8.13;;;;;;;-141.59;100.00;61776.25;5038535;28;20279;-83
2022/12/01 06:03:45;;;;;;;13.57;8.57;;;;;;;-141.59;100.00;61776.25;5038631;28;20194;-82
2022/12/01 06:06:12;;;;;;;11.23;8.20;;;;;;;-141.59;100.00;61776.25;5039094;28;20210;-83
2022/12/01 06:08:39;;;;;;;11.97;7.43;;;;;;;-141.59;100.00;61776.25;5041540;28;20214;-83
2022/12/01 06:11:08;;;;;;;13.03;7.60;;;;;;;-141.59;100.00;61776.25;5034829;28;20254;-83
2022/12/01 06:13:37;;;;;;;14.63;9.13;;;;;;;-141.59;100.00;61776.25;5056728;28;20198;-83
2022/12/01 06:16:06;;;;;;;11.40;7.30;;;;;;;-141.59;100.00;61776.25;5041119;28;20233;-83
2022/12/01 06:18:35;;;;;;;15.23;9.27;;;;;;;-141.59;100.00;61776.25;5038347;28;20198;-83
2022/12/01 06:21:05;;;;;;;16.27;8.10;;;;;;;-141.59;100.00;61776.25;5038952;28;20321;-82
2022/12/01 06:23:33;;;;;;;13.73;9.23;;;;;;;-141.59;100.00;61776.25;5039848;28;20544;-83
2022/12/01 06:26:00;;;;;;;11.57;7.33;;;;;;;-141.59;100.00;61776.25;5047097;28;20197;-82
2022/12/01 06:28:27;;;;;;;14.60;9.23;;;;;;;-141.59;100.00;61776.25;5044162;28;20288;-82
2022/12/01 06:30:54;;;;;;;15.50;8.80;;;;;;;-141.59;100.00;61776.25;5039226;28;20220;-83
2022/12/01 06:33:22;;;;;;;12.50;8.57;;;;;;;-141.59;100.00;61776.25;5040871;28;20212;-83
2022/12/01 06:35:56;;;;;;;14.17;9.43;;;;;;;-141.59;100.00;61776.25;5040499;28;20234;-82
2022/12/01 06:38:25;;;;;;;14.27;8.77;;;;;;;-141.59;100.00;61776.25;5045421;28;20198;-83
2022/12/01 06:40:52;;;;;;;13.23;7.73;;;;;;;-141.59;100.00;61776.25;5048982;28;20220;-85
2022/12/01 06:43:19;;;;;;;13.63;8.47;;;;;;;-141.59;100.00;61776.25;5044716;28;20234;-83
2022/12/01 06:45:46;;;;;;;14.63;8.77;;;;;;;-141.59;100.00;61776.25;5039447;28;20202;-83
2022/12/01 06:48:13;;;;;;;12.67;8.07;;;;;;;-141.59;100.00;61776.25;5039418;28;20218;-83
2022/12/01 06:50:41;;;;;;;11.47;7.70;;;;;;;-141.59;100.00;61776.25;5042289;28;20202;-83
2022/12/01 06:53:10;;;;;;;12.97;8.57;;;;;;;-141.59;100.00;61776.25;5046205;28;20206;-83
2022/12/01 06:55:39;;;;;;;16.03;7.90;;;;;;;-141.59;100.00;61776.25;5050862;28;20232;-84
2022/12/01 06:58:07;;;;;;;15.77;8.60;;;;;;;-141.59;100.00;61776.25;5049990;28;20205;-83
2022/12/01 07:00:34;;;;;;;13.20;8.07;;;;;;;-141.59;100.00;61776.25;5037518;28;20237;-84
2022/12/01 07:03:01;;;;;;;18.13;11.10;;;;;;;-141.59;100.00;61776.25;5050687;28;20206;-83
2022/12/01 07:05:28;;;;;;;16.23;9.03;;;;;;;-141.59;100.00;61776.25;5054149;28;20208;-83
2022/12/01 07:07:55;;;;;;;11.93;7.83;;;;;;;-141.59;100.00;61776.25;5052221;28;20198;-83
2022/12/01 07:10:22;;;;;;;13.00;8.27;;;;;;;-141.59;100.00;61776.25;5064573;28;20217;-83
2022/12/01 07:12:50;;;;;;;16.10;9.97;;;;;;;-141.59;100.00;61776.25;5048366;28;20219;-83
2022/12/01 07:15:18;;;;;;;17.37;9.80;;;;;;;-141.59;100.00;61776.25;5041894;28;20217;-83
2022/12/01 07:17:45;;;;;;;15.63;9.67;;;;;;;-141.59;100.00;61776.25;5067982;28;20341;-84
2022/12/01 07:20:12;;;;;;;17.13;10.80;;;;;;;-141.59;100.00;61776.25;5047613;28;20217;-84
2022/12/01 07:22:41;;;;;;;16.13;9.87;;;;;;;-141.59;100.00;61776.25;5054992;28;20211;-84
2022/12/01 07:25:09;;;;;;;17.97;10.43;;;;;;;-141.59;100.00;61776.25;5050791;28;20205;-85
2022/12/01 07:27:36;;;;;;;15.30;9.50;;;;;;;-141.59;100.00;61776.25;5070741;28;20197;-85
2022/12/01 07:30:09;;;;;;;17.63;10.70;;;;;;;-141.59;100.00;61776.25;5049999;28;20205;-86
2022/12/01 07:32:37;;;;;;;18.10;10.60;;;;;;;-141.59;100.00;61776.25;5048026;28;20258;-85
2022/12/01 07:35:05;;;;;;;18.37;9.03;;;;;;;-141.59;100.00;61776.25;5063152;28;20210;-85
2022/12/01 07:37:32;;;;;;;16.63;10.13;;;;;;;-141.59;100.00;61776.25;5039640;28;20213;-85
2022/12/01 07:39:59;;;;;;;14.60;8.93;;;;;;;-141.59;100.00;61776.25;5049265;28;20228;-85
2022/12/01 07:42:26;;;;;;;20.73;9.67;;;;;;;-141.59;100.00;61776.25;5050476;28;20224;-84
2022/12/01 07:44:53;;;;;;;16.87;10.03;;;;;;;-141.59;100.00;61776.25;5064637;28;20255;-85
2022/12/01 07:47:22;;;;;;;13.97;9.10;;;;;;;-141.59;100.00;61776.25;5050434;28;20205;-85
2022/12/01 07:49:49;;;;;;;14.53;9.43;;;;;;;-141.59;100.00;61776.25;5053995;28;20194;-86
2022/12/01 07:52:16;;;;;;;15.00;9.07;;;;;;;-141.59;100.00;61776.25;5057204;28;20288;-85
2022/12/01 07:54:43;;;;;;;17.13;9.87;;;;;;;-141.59;100.00;61776.25;5068817;28;20206;-85
2022/12/01 07:57:13;;;;;;;16.67;10.53;;;;;;;-141.59;100.00;61776.25;5053281;28;20229;-84
2022/12/01 07:59:40;;;;;;;14.67;9.20;;;;;;;-141.59;100.00;61776.25;5037188;28;20224;-85
2022/12/01 08:02:09;;;;;;;15.67;9.77;;;;;;;-141.59;100.00;61776.25;5050006;28;20205;-85
2022/12/01 08:04:38;;;;;;;17.43;11.13;;;;;;;-141.59;100.00;61776.25;5053669;28;20216;-85
2022/12/01 08:07:06;;;;;;;17.17;10.97;;;;;;;-141.59;100.00;61776.25;5042708;28;20237;-86
2022/12/01 08:09:33;;;;;;;17.10;10.17;;;;;;;-141.59;100.00;61776.25;5058780;28;20293;-85
2022/12/01 08:12:00;;;;;;;17.50;10.63;;;;;;;-141.59;100.00;61776.25;5061624;28;20201;-88
2022/12/01 08:14:27;;;;;;;16.77;10.47;;;;;;;-141.59;100.00;61776.25;5053038;28;20209;-88
2022/12/01 08:16:54;;;;;;;17.73;10.53;;;;;;;-141.59;100.00;61776.25;5053818;28;20204;-87
2022/12/01 08:19:22;;;;;;;15.83;10.43;;;;;;;-141.59;100.00;61776.25;5071086;28;20397;-88
2022/12/01 08:21:50;;;;;;;18.30;10.57;;;;;;;-141.59;100.00;61776.25;5052748;28;20217;-85
2022/12/01 08:24:17;;;;;;;18.00;10.80;;;;;;;-141.59;100.00;61776.25;5049219;28;20225;-83
2022/12/01 08:26:44;;;;;;;22.63;10.73;;;;;;;-141.59;100.00;61776.25;5045021;28;20213;-84
2022/12/01 08:29:11;;;;;;;19.93;11.47;;;;;;;-141.59;100.00;61776.25;5051085;28;20292;-84
2022/12/01 08:31:39;;;;;;;15.90;9.40;;;;;;;-141.59;100.00;61776.25;5050535;28;20202;-84
2022/12/01 08:34:09;;;;;;;15.47;8.80;;;;;;;-141.59;100.00;61776.25;5048844;28;20216;-84
2022/12/01 08:36:36;;;;;;;16.47;9.40;;;;;;;-141.59;100.00;61776.25;5060301;28;20217;-85
2022/12/01 08:39:07;;;;;;;18.97;9.70;;;;;;;-141.59;100.00;61776.25;5050980;28;20202;-84
2022/12/01 08:41:34;;;;;;;16.37;8.90;;;;;;;-141.59;100.00;61776.25;5050979;28;20227;-85
2022/12/01 08:44:01;;;;;;;16.50;9.97;;;;;;;-141.59;100.00;61776.25;5047155;28;20205;-85
2022/12/01 08:46:31;;;;;;;15.03;9.37;;;;;;;-141.59;100.00;61776.25;5049704;28;20217;-85
2022/12/01 08:48:58;;;;;;;16.03;9.53;;;;;;;-141.59;100.00;61776.25;5047090;28;20221;-84
2022/12/01 08:51:26;;;;;;;15.03;8.77;;;;;;;-141.59;100.00;61776.25;5065481;28;20197;-84
2022/12/01 08:53:55;;;;;;;15.27;9.37;;;;;;;-141.59;100.00;61776.25;5040145;28;20205;-83
2022/12/01 08:56:27;;;;;;;14.93;8.90;;;;;;;-141.59;100.00;61776.25;5038960;28;20237;-84
2022/12/01 08:58:54;;;;;;;14.90;8.87;;;;;;;-141.59;100.00;61776.25;5048847;28;20202;-85
2022/12/01 09:01:22;;;;;;;16.70;9.93;;;;;;;-141.59;100.00;61776.25;5048875;28;20218;-85
2022/12/01 09:04:03;;;;;;;15.00;9.00;;;;;;;-141.59;100.00;61776.25;5049597;28;20202;-85
2022/12/01 09:06:32;;;;;;;14.13;8.43;;;;;;;-141.59;100.00;61776.25;5042347;28;20208;-84
2022/12/01 09:08:59;;;;;;;15.87;9.40;;;;;;;-141.59;100.00;61776.25;5039891;28;20208;-85
2022/12/01 09:11:28;;;;;;;16.93;9.80;;;;;;;-141.59;100.00;61776.25;5041409;28;20224;-85
2022/12/01 09:13:55;;;;;;;25.33;15.07;;;;;;;-141.59;100.00;61776.25;5064419;28;20289;-84
2022/12/01 09:16:22;;;;;;;16.40;10.87;;;;;;;-141.59;100.00;61776.25;5042104;28;20206;-84
2022/12/01 09:18:49;;;;;;;15.07;10.00;;;;;;;-141.59;100.00;61776.25;5045353;28;20208;-85
2022/12/01 09:21:18;;;;;;;15.60;9.07;;;;;;;-141.59;100.00;61776.25;5051018;28;20237;-84
2022/12/01 09:23:46;;;;;;;12.63;7.60;;;;;;;-141.59;100.00;61776.25;5040594;28;20201;-85
2022/12/01 09:26:16;;;;;;;12.70;7.93;;;;;;;-141.59;100.00;61776.25;5045359;28;20210;-84
2022/12/01 09:28:47;;;;;;;15.50;8.60;;;;;;;-141.59;100.00;61776.25;5050505;28;20241;-84
2022/12/01 09:31:17;;;;;;;18.17;8.97;;;;;;;-141.59;100.00;61776.25;5047089;28;20214;-84
2022/12/01 09:33:45;;;;;;;14.83;8.90;;;;;;;-141.59;100.00;61776.25;5063400;28;20213;-84
2022/12/01 09:36:12;;;;;;;14.97;8.80;;;;;;;-141.59;100.00;61776.25;5041593;28;20317;-84
2022/12/01 09:38:40;;;;;;;13.20;8.57;;;;;;;-141.59;100.00;61776.25;5045493;28;20206;-85
2022/12/01 09:41:15;;;;;;;13.77;7.93;;;;;;;-141.59;100.00;61776.25;5049824;28;20210;-85
2022/12/01 09:43:51;;;;;;;13.23;8.23;;;;;;;-141.59;100.00;61776.25;5040780;28;20225;-86
2022/12/01 09:46:22;;;;;;;12.53;8.43;;;;;;;-141.59;100.00;61776.25;5046644;28;20216;-85
2022/12/01 09:48:52;;;;;;;11.00;7.53;;;;;;;-141.59;100.00;61776.25;5047782;28;20210;-85
2022/12/01 09:51:21;;;;;;;13.57;8.60;;;;;;;-141.59;100.00;61776.25;5046644;28;20232;-85
2022/12/01 09:53:50;;;;;;;11.87;7.47;;;;;;;-141.59;100.00;61776.25;5052039;28;20213;-84
2022/12/01 09:56:21;;;;;;;13.50;8.47;;;;;;;-141.59;100.00;61776.25;5045969;28;20325;-83
2022/12/01 09:58:55;;;;;;;13.07;8.40;;;;;;;-141.59;100.00;61776.25;5058315;28;20229;-84
2022/12/01 10:01:31;;;;;;;13.83;8.60;;;;;;;-141.59;100.00;61776.25;5040489;28;20230;-84
2022/12/01 10:04:05;;;;;;;13.17;8.37;;;;;;;-141.59;100.00;61776.25;5037876;28;20202;-84
2022/12/01 10:06:39;;;;;;;12.50;8.10;;;;;;;-141.59;100.00;61776.25;5034303;28;20198;-84
2022/12/01 10:09:24;;;;;;;13.10;8.13;;;;;;;-141.59;100.00;61776.25;5045161;28;20213;-84
2022/12/01 10:11:53;;;;;;;16.43;8.87;;;;;;;-141.59;100.00;61776.25;5048122;28;20230;-84
2022/12/01 10:14:22;;;;;;;15.63;9.57;;;;;;;-141.59;100.00;61776.25;5050447;28;20225;-85
2022/12/01 10:17:03;;;;;;;17.93;9.83;;;;;;;-141.59;100.00;61776.25;5047362;28;20210;-84
2022/12/01 10:19:38;;;;;;;13.50;8.80;;;;;;;-141.59;100.00;61776.25;5044380;28;20206;-83
2022/12/01 10:22:26;;;;;;;13.90;8.63;;;;;;;-141.59;100.00;61776.25;5048238;28;20225;-83
2022/12/01 10:24:56;;;;;;;18.23;10.40;;;;;;;-141.59;100.00;61776.25;5045809;28;20212;-84
2022/12/01 10:27:40;;;;;;;14.30;9.03;;;;;;;-141.59;100.00;61776.25;5047735;28;20291;-84
2022/12/01 10:30:14;;;;;;;14.97;9.33;;;;;;;-141.59;100.00;61776.25;5037059;28;20284;-85
2022/12/01 10:32:51;;;;;;;14.93;9.37;;;;;;;-141.59;100.00;61776.25;5047214;28;20256;-84
2022/12/01 10:35:22;;;;;;;14.87;8.80;;;;;;;-141.59;100.00;61776.25;5037961;28;20206;-84
2022/12/01 10:37:55;;;;;;;14.50;8.40;;;;;;;-141.59;100.00;61776.25;5044886;28;20202;-84
2022/12/01 10:40:23;;;;;;;13.77;8.87;;;;;;;-141.59;100.00;61776.25;5038606;28;20235;-85
2022/12/01 10:42:51;;;;;;;13.30;8.57;;;;;;;-141.59;100.00;61776.25;5040480;28;20212;-83
2022/12/01 10:45:22;;;;;;;15.07;7.70;;;;;;;-141.59;100.00;61776.25;5034638;28;20281;-83
2022/12/01 10:48:09;;;;;;;14.13;8.57;;;;;;;-141.59;100.00;61776.25;5045624;28;20209;-84
2022/12/01 10:50:37;;;;;;;13.80;8.30;;;;;;;-141.59;100.00;61776.25;5045512;28;20218;-83
2022/12/01 10:53:05;;;;;;;13.80;8.37;;;;;;;-141.59;100.00;61776.25;5047162;28;20209;-84
2022/12/01 10:55:36;;;;;;;14.80;8.73;;;;;;;-141.59;100.00;61776.25;5046568;28;20198;-83
2022/12/01 10:58:13;;;;;;;16.83;9.20;;;;;;;-141.59;100.00;61776.25;5047350;28;20209;-84
2022/12/01 11:00:44;;;;;;;16.67;9.57;;;;;;;-141.59;100.00;61776.25;5052951;28;20212;-84
2022/12/01 11:03:21;;;;;;;16.40;9.03;;;;;;;-141.59;100.00;61776.25;5034155;28;20236;-84
2022/12/01 11:05:52;;;;;;;16.30;9.97;;;;;;;-141.59;100.00;61776.25;5036785;28;20198;-84
2022/12/01 11:08:25;;;;;;;17.67;9.77;;;;;;;-141.59;100.00;61776.25;5048097;28;20205;-84
2022/12/01 11:10:52;;;;;;;16.77;9.57;;;;;;;-141.59;100.00;61776.25;5046819;28;20292;-84
2022/12/01 11:13:23;;;;;;;16.83;9.97;;;;;;;-141.59;100.00;61776.25;5052178;28;20285;-85
2022/12/01 11:15:54;;;;;;;18.13;10.53;;;;;;;-141.59;100.00;61776.25;5047536;28;20217;-85
2022/12/01 11:18:24;;;;;;;18.23;10.10;;;;;;;-141.59;100.00;61776.25;5049504;28;20212;-85
2022/12/01 11:21:08;;;;;;;19.50;10.57;;;;;;;-141.59;100.00;61776.25;5052136;28;20251;-84